»·PEaware :: N491H KFUL-KDAG

N491H :: KFUL-KDAG

FLIGHT INFORMATION

Flight Status: Arrived
Operator: Privately registered:
United States
More flights under this callsign
Pilot: Edward H. (2712)
Aircraft: CESSNA 172 SKYHAWK
(C172)
More flights by this aircraft type
Origin: KFUL Fullerton Mun
United States
Destination: KDAG Barstow-Daggett
United States
More flights between these airports :: More routes between these airports
Route: +
File this flight plan on PilotEdge
Remarks:
Altitude:
(Current/Filed)
0ft
Speed:
(Current/Filed)
0kts
Departed: 27-Apr-18 07:10 AM
Arrived: 27-Apr-18 08:05 AM
Distance/Time
Traveled:
84nm/0:55
Distance/Time
To Go:
Arrived

Flight Plot

Page will automatically refresh every two minutes.

Flight plan parsing failed; only flown route is shown


Map Options




Map Legend


Flown Route
Filed Route
Departure Airport
Arrival Airport
Navaid (VOR, NDB)
Fix

Horizontal Profiles

Position Reports

Time Latitude Longitude Heading Altitude Ground
Speed
27-Apr-18 07:06 33.870835 -117.975820 21 100ft 0kts
27-Apr-18 07:07 33.871922 -117.975497 351 100ft 3kts
27-Apr-18 07:08 33.872585 -117.974807 4 100ft 0kts
27-Apr-18 07:09 33.871004 -117.984945 256 196ft 75kts
27-Apr-18 07:10 33.864136 -117.972959 79 735ft 76kts
27-Apr-18 07:11 33.869048 -117.948632 40 1308ft 79kts
27-Apr-18 07:12 33.884913 -117.931698 38 1914ft 77kts
27-Apr-18 07:13 33.897681 -117.916302 42 2389ft 77kts
27-Apr-18 07:14 33.915050 -117.900215 16 2838ft 87kts
27-Apr-18 07:15 33.939393 -117.891894 26 3235ft 93kts
27-Apr-18 07:16 33.960115 -117.873561 40 3622ft 94kts
27-Apr-18 07:17 33.977901 -117.853165 43 4210ft 74kts
27-Apr-18 07:18 33.992291 -117.836181 42 4695ft 74kts
27-Apr-18 07:19 34.010512 -117.814311 43 5102ft 88kts
27-Apr-18 07:20 34.028332 -117.792803 44 5370ft 97kts
27-Apr-18 07:21 34.046087 -117.771501 43 5814ft 90kts
27-Apr-18 07:22 34.060696 -117.753940 43 6101ft 92kts
27-Apr-18 07:23 34.078416 -117.732616 43 6453ft 91kts
27-Apr-18 07:24 34.096399 -117.710985 43 6777ft 92kts
27-Apr-18 07:25 34.113854 -117.689945 44 7086ft 92kts
27-Apr-18 07:26 34.132013 -117.668069 43 7395ft 93kts
27-Apr-18 07:27 34.152211 -117.643667 44 7409ft 109kts
27-Apr-18 07:28 34.173187 -117.617362 50 7413ft 111kts
27-Apr-18 07:29 34.190959 -117.588050 55 7471ft 109kts
27-Apr-18 07:30 34.205004 -117.557595 45 7505ft 112kts
27-Apr-18 07:31 34.228780 -117.536334 19 7645ft 113kts
27-Apr-18 07:32 34.254412 -117.515557 34 7563ft 114kts
27-Apr-18 07:33 34.275844 -117.492590 37 7489ft 103kts
27-Apr-18 07:34 34.296332 -117.468852 39 7486ft 104kts
27-Apr-18 07:35 34.316895 -117.444276 41 7482ft 106kts
27-Apr-18 07:36 34.337775 -117.419127 42 7478ft 107kts
27-Apr-18 07:37 34.358683 -117.393812 44 7473ft 106kts
27-Apr-18 07:38 34.381862 -117.365498 45 6983ft 132kts
27-Apr-18 07:39 34.407188 -117.334638 46 6505ft 131kts
27-Apr-18 07:40 34.432698 -117.303533 45 6044ft 130kts
27-Apr-18 07:41 34.457957 -117.272703 45 5618ft 128kts
27-Apr-18 07:42 34.481891 -117.243544 45 5499ft 115kts
27-Apr-18 07:43 34.503896 -117.216734 45 5498ft 111kts
27-Apr-18 07:44 34.525398 -117.190451 46 5496ft 110kts
27-Apr-18 07:45 34.546860 -117.164222 46 5493ft 109kts
27-Apr-18 07:46 34.568151 -117.138214 47 5490ft 108kts
27-Apr-18 07:47 34.589400 -117.112179 47 5490ft 108kts
27-Apr-18 07:48 34.610704 -117.086055 47 5485ft 109kts
27-Apr-18 07:49 34.632131 -117.059798 46 5470ft 107kts
27-Apr-18 07:50 34.653179 -117.033953 46 5475ft 108kts
27-Apr-18 07:51 34.674537 -117.007709 45 5470ft 110kts
27-Apr-18 07:52 34.696091 -116.981208 44 5465ft 110kts
27-Apr-18 07:53 34.717482 -116.954331 47 5463ft 111kts
27-Apr-18 07:54 34.734828 -116.922659 61 5229ft 112kts
27-Apr-18 07:55 34.747948 -116.896310 60 5450ft 91kts
27-Apr-18 07:56 34.760540 -116.868207 46 5260ft 96kts
27-Apr-18 07:57 34.780449 -116.847095 35 4866ft 102kts
27-Apr-18 07:58 34.794900 -116.824315 62 4623ft 72kts
27-Apr-18 07:59 34.803839 -116.802466 60 4289ft 84kts
27-Apr-18 08:00 34.810046 -116.789520 29 4089ft 91kts
27-Apr-18 08:01 34.829310 -116.769686 28 3543ft 89kts
27-Apr-18 08:02 34.851076 -116.756632 13 2920ft 76kts
27-Apr-18 08:03 34.866047 -116.764477 298 2455ft 64kts
27-Apr-18 08:04 34.859985 -116.780690 234 1929ft 38kts
27-Apr-18 08:05 34.858108 -116.785946 317 1929ft 13kts

Navigation Log

Ident Type
Flight plan parsing failed, navigation log unavailable